createdAt,value
2023-03-08T00:02:00.194Z,97069.69
2023-03-08T00:07:05.725Z,97086.72
2023-03-08T00:12:13.574Z,97086.72
2023-03-08T00:17:21.904Z,97102.06
2023-03-08T00:22:26.888Z,97103.78
2023-03-08T00:27:33.856Z,97117.38
2023-03-08T00:32:42.750Z,97106.00
2023-03-08T00:37:47.820Z,97106.34
2023-03-08T00:42:54.848Z,97120.41
2023-03-08T00:48:02.586Z,97114.78
2023-03-08T00:53:08.917Z,97133.16
2023-03-08T00:58:14.900Z,97136.56
2023-03-08T01:03:24.553Z,97126.59
2023-03-08T01:08:30.462Z,97139.44
2023-03-08T01:13:38.547Z,97127.06
2023-03-08T01:18:51.208Z,97122.91
2023-03-08T01:23:58.111Z,97143.25
2023-03-08T01:29:04.217Z,97131.91
2023-03-08T01:34:12.776Z,97131.53
2023-03-08T01:39:22.726Z,97122.84
2023-03-08T01:44:27.732Z,97128.53
2023-03-08T01:49:40.416Z,97132.38
2023-03-08T01:54:51.404Z,97134.72
2023-03-08T02:00:03.184Z,97129.75
2023-03-08T02:05:23.626Z,97126.69
2023-03-08T02:10:32.648Z,97118.13
2023-03-08T02:15:39.300Z,97119.31
2023-03-08T02:20:51.869Z,97128.25
2023-03-08T02:26:02.308Z,97127.97
2023-03-08T02:31:11.249Z,97123.41
2023-03-08T02:36:18.521Z,97128.75
2023-03-08T02:41:27.410Z,97131.53
2023-03-08T02:46:32.400Z,97132.00
2023-03-08T02:51:37.448Z,97120.56
2023-03-08T02:56:45.106Z,97131.97
2023-03-08T03:01:54.422Z,97146.88
2023-03-08T03:07:01.659Z,97140.78
2023-03-08T03:12:12.093Z,97142.09
2023-03-08T03:17:19.006Z,97127.41
2023-03-08T03:22:24.139Z,97127.97
2023-03-08T03:27:31.820Z,97150.94
2023-03-08T03:32:37.351Z,97153.66
2023-03-08T03:37:43.631Z,97151.00
2023-03-08T03:42:57.338Z,97153.88
2023-03-08T03:48:04.940Z,97155.50
2023-03-08T03:53:13.160Z,97158.72
2023-03-08T03:58:21.591Z,97152.72
2023-03-08T04:03:30.984Z,97175.00
2023-03-08T04:08:42.216Z,97167.00
2023-03-08T04:13:53.297Z,97177.03
2023-03-08T04:19:02.558Z,97169.25
2023-03-08T04:24:10.250Z,97171.28
2023-03-08T04:29:17.977Z,97174.81
2023-03-08T04:34:25.629Z,97174.56
2023-03-08T04:39:31.814Z,97173.22
2023-03-08T04:44:40.984Z,97172.06
2023-03-08T04:49:46.319Z,97161.38
2023-03-08T04:54:51.697Z,97169.00
2023-03-08T05:00:10.552Z,97178.44
2023-03-08T05:05:17.881Z,97170.19
2023-03-08T05:10:25.695Z,97160.75
2023-03-08T05:15:33.765Z,97173.91
2023-03-08T05:20:46.076Z,97160.97
2023-03-08T05:25:56.343Z,97168.28
2023-03-08T05:31:10.480Z,97171.06
2023-03-08T05:36:17.263Z,97175.41
2023-03-08T05:41:25.013Z,97169.47
2023-03-08T05:46:35.169Z,97176.13
2023-03-08T05:51:41.796Z,97194.94
2023-03-08T05:56:48.012Z,97196.88
2023-03-08T06:02:09.073Z,97188.81
2023-03-08T06:07:35.325Z,97187.16
2023-03-08T06:12:48.700Z,97194.28
2023-03-08T06:18:01.140Z,97199.44
2023-03-08T06:23:06.639Z,97198.00
2023-03-08T06:28:11.729Z,97196.72
2023-03-08T06:33:23.897Z,97209.56
2023-03-08T06:38:33.555Z,97214.31
2023-03-08T06:43:39.891Z,97209.84
2023-03-08T06:48:48.253Z,97189.66
2023-03-08T06:53:57.985Z,97179.78
2023-03-08T06:59:06.091Z,97187.09
2023-03-08T07:04:15.174Z,97196.88
2023-03-08T07:09:25.189Z,97197.06
2023-03-08T07:14:31.402Z,97201.78
2023-03-08T07:19:39.051Z,97203.50
2023-03-08T07:24:44.007Z,97213.53
2023-03-08T07:29:48.907Z,97207.16
2023-03-08T07:34:56.703Z,97210.13
2023-03-08T07:40:01.937Z,97215.41
2023-03-08T07:45:10.889Z,97213.94
2023-03-08T07:50:18.784Z,97216.44
2023-03-08T07:55:25.640Z,97212.13
2023-03-08T08:00:33.457Z,97203.19
2023-03-08T08:05:41.435Z,97211.34
2023-03-08T08:10:47.407Z,97209.88
2023-03-08T08:16:01.995Z,97201.38
2023-03-08T08:21:12.774Z,97206.16
2023-03-08T08:26:19.963Z,97197.53
2023-03-08T08:31:27.275Z,97186.91
2023-03-08T08:36:35.946Z,97179.38
2023-03-08T08:41:41.023Z,97177.66
2023-03-08T08:46:47.693Z,97176.66
2023-03-08T08:51:55.550Z,97184.16
2023-03-08T08:57:00.614Z,97170.81
2023-03-08T09:02:08.837Z,97153.53
2023-03-08T09:07:17.386Z,97159.06
2023-03-08T09:12:28.538Z,97157.78
2023-03-08T09:17:34.551Z,97142.63
2023-03-08T09:22:53.281Z,97125.38
2023-03-08T09:27:59.611Z,97119.13
2023-03-08T09:33:13.568Z,97110.38
2023-03-08T09:38:25.068Z,97100.25
2023-03-08T09:43:44.221Z,97099.63
2023-03-08T09:49:01.141Z,97093.53
2023-03-08T09:54:15.562Z,97077.03
2023-03-08T09:59:28.053Z,97065.13
2023-03-08T10:05:12.225Z,97055.50
2023-03-08T10:10:46.335Z,97054.56
2023-03-08T10:16:00.124Z,97053.63
2023-03-08T10:21:06.022Z,97044.78
2023-03-08T10:26:18.718Z,97033.66
2023-03-08T10:31:27.393Z,97040.06
2023-03-08T10:36:32.506Z,97034.78
2023-03-08T10:41:46.121Z,97033.47
2023-03-08T10:46:53.548Z,97026.13
2023-03-08T10:52:00.871Z,97024.13
2023-03-08T10:57:19.817Z,97004.03
2023-03-08T11:02:26.416Z,96995.47
2023-03-08T11:07:43.497Z,96982.69
2023-03-08T11:13:04.020Z,96978.44
2023-03-08T11:18:28.148Z,96952.75
2023-03-08T11:23:52.366Z,96937.97
2023-03-08T11:29:39.853Z,96923.22
2023-03-08T11:36:29.560Z,96922.81
2023-03-08T11:41:28.332Z,96888.97
2023-03-08T11:46:56.889Z,96891.19
2023-03-08T11:52:11.074Z,96874.50
2023-03-08T11:57:21.079Z,96862.28
2023-03-08T12:02:33.210Z,96846.59
2023-03-08T12:07:44.565Z,96833.88
2023-03-08T12:12:59.124Z,96822.13
2023-03-08T12:18:13.223Z,96827.00
2023-03-08T12:23:31.050Z,96817.06
2023-03-08T12:28:50.676Z,96817.28
2023-03-08T12:33:56.264Z,96813.50
2023-03-08T12:39:12.415Z,96797.31
2023-03-08T12:44:33.671Z,96804.47
2023-03-08T12:49:40.910Z,96803.16
2023-03-08T12:54:48.323Z,96801.94
2023-03-08T13:00:02.202Z,96798.38
2023-03-08T13:05:23.150Z,96787.66
2023-03-08T13:10:37.770Z,96791.31
2023-03-08T13:15:47.200Z,96801.00
2023-03-08T13:21:10.006Z,96804.88
2023-03-08T13:26:49.384Z,96805.31
2023-03-08T13:32:06.277Z,96811.81
2023-03-08T13:37:26.180Z,96795.84
2023-03-08T13:42:33.611Z,96794.03
2023-03-08T13:47:49.924Z,96794.22
2023-03-08T13:52:55.030Z,96780.38
2023-03-08T13:58:00.595Z,96774.78
2023-03-08T14:03:10.713Z,96760.84
2023-03-08T14:08:25.047Z,96748.09
2023-03-08T14:13:33.818Z,96765.59
2023-03-08T14:18:46.317Z,96746.72
2023-03-08T14:23:55.806Z,96731.38
2023-03-08T14:29:24.675Z,96736.75
2023-03-08T14:34:39.431Z,96739.88
2023-03-08T14:39:46.655Z,96712.97
2023-03-08T14:44:55.465Z,96719.97
2023-03-08T14:50:07.355Z,96722.78
2023-03-08T14:55:24.440Z,96697.88
2023-03-08T15:00:30.524Z,96689.31
2023-03-08T15:05:40.037Z,96693.28
2023-03-08T15:10:46.109Z,96673.25
2023-03-08T15:15:51.518Z,96653.00
2023-03-08T15:21:00.021Z,96648.06
2023-03-08T15:26:08.129Z,96651.53
2023-03-08T15:31:13.077Z,96662.97
2023-03-08T15:36:25.037Z,96652.13
2023-03-08T15:41:30.347Z,96643.56
2023-03-08T15:46:38.514Z,96636.44
2023-03-08T15:51:46.519Z,96627.94
2023-03-08T15:56:54.956Z,96596.91
2023-03-08T16:02:18.128Z,96608.97
2023-03-08T16:07:32.398Z,96600.84
2023-03-08T16:12:39.733Z,96598.81
2023-03-08T16:17:44.990Z,96600.19
2023-03-08T16:22:52.930Z,96582.94
2023-03-08T16:27:57.929Z,96599.75
2023-03-08T16:33:05.284Z,96598.94
2023-03-08T16:38:14.399Z,96590.72
2023-03-08T16:43:21.106Z,96594.31
2023-03-08T16:48:28.610Z,96592.63
2023-03-08T16:53:40.357Z,96583.81
2023-03-08T16:58:45.465Z,96578.50
2023-03-08T17:03:51.318Z,96583.34
2023-03-08T17:09:01.385Z,96578.91
2023-03-08T17:14:09.177Z,96575.22
2023-03-08T17:19:18.048Z,96562.66
2023-03-08T17:24:28.164Z,96565.94
2023-03-08T17:29:33.369Z,96575.75
2023-03-08T17:34:38.394Z,96568.13
2023-03-08T17:39:46.101Z,96558.69
2023-03-08T17:44:53.347Z,96547.09
2023-03-08T17:50:00.719Z,96539.94
2023-03-08T17:55:09.278Z,96536.97
2023-03-08T18:00:18.085Z,96530.66
2023-03-08T18:05:23.061Z,96531.34
2023-03-08T18:10:30.888Z,96543.38
2023-03-08T18:15:35.906Z,96548.91
2023-03-08T18:20:40.887Z,96567.81
2023-03-08T18:25:50.226Z,96568.63
2023-03-08T18:30:56.618Z,96563.97
2023-03-08T18:36:04.010Z,96544.06
2023-03-08T18:41:23.383Z,96531.75
2023-03-08T18:46:31.882Z,96542.66
2023-03-08T18:51:39.054Z,96543.03
2023-03-08T18:56:47.911Z,96545.63
2023-03-08T19:01:54.269Z,96544.25
2023-03-08T19:06:59.269Z,96541.38
2023-03-08T19:12:08.634Z,96548.34
2023-03-08T19:17:16.073Z,96538.13
2023-03-08T19:22:23.813Z,96531.25
2023-03-08T19:27:31.844Z,96527.13
2023-03-08T19:32:37.000Z,96532.41
2023-03-08T19:37:43.590Z,96538.56
2023-03-08T19:42:54.343Z,96544.44
2023-03-08T19:48:02.188Z,96548.16
2023-03-08T19:53:07.770Z,96537.34
2023-03-08T19:58:18.782Z,96544.50
2023-03-08T20:03:25.497Z,96525.13
2023-03-08T20:08:31.717Z,96540.63
2023-03-08T20:13:45.684Z,96546.81
2023-03-08T20:18:57.544Z,96535.19
2023-03-08T20:24:04.361Z,96539.34
2023-03-08T20:29:12.698Z,96546.03
2023-03-08T20:34:19.806Z,96542.13
2023-03-08T20:39:26.681Z,96542.16
2023-03-08T20:44:34.849Z,96539.41
2023-03-08T20:49:42.261Z,96555.03
2023-03-08T20:54:49.929Z,96545.91
2023-03-08T21:00:00.783Z,96540.84
2023-03-08T21:05:07.786Z,96552.66
2023-03-08T21:10:14.456Z,96552.84
2023-03-08T21:15:23.706Z,96542.47
2023-03-08T21:20:28.786Z,96543.06
2023-03-08T21:25:36.941Z,96533.47
2023-03-08T21:30:54.003Z,96532.91
2023-03-08T21:35:59.811Z,96537.81
2023-03-08T21:41:05.793Z,96522.69
2023-03-08T21:46:15.537Z,96507.19
2023-03-08T21:51:22.145Z,96508.69
2023-03-08T21:56:27.317Z,96513.38
2023-03-08T22:01:35.817Z,96502.41
2023-03-08T22:06:40.938Z,96494.84
2023-03-08T22:11:46.743Z,96498.03
2023-03-08T22:16:56.598Z,96495.53
2023-03-08T22:22:03.048Z,96486.13
2023-03-08T22:27:11.035Z,96485.16
2023-03-08T22:32:18.989Z,96490.78
2023-03-08T22:37:24.076Z,96481.19
2023-03-08T22:42:30.597Z,96490.47
2023-03-08T22:47:38.247Z,96481.50
2023-03-08T22:52:45.606Z,96484.41
2023-03-08T22:57:50.568Z,96468.19
2023-03-08T23:03:04.196Z,96486.13
2023-03-08T23:08:09.623Z,96483.63
2023-03-08T23:13:31.149Z,96485.66
2023-03-08T23:18:42.882Z,96481.31
2023-03-08T23:23:50.687Z,96481.59
2023-03-08T23:28:55.786Z,96472.78
2023-03-08T23:34:04.092Z,96460.56
2023-03-08T23:39:09.471Z,96461.19
2023-03-08T23:44:15.301Z,96474.81
2023-03-08T23:49:22.952Z,96458.13
2023-03-08T23:54:27.997Z,96448.69
2023-03-08T23:59:33.563Z,96442.19
